• Join FlightAware (Why Join?)
  • Login
  • US Flag 
12:50PM EDT


 

Airport Tracker/Info


-or-


 

Live Flight TrackerFlight Track Log ✈ ASQ4403 ✈ 28-Feb-2014 ✈ KIAH - MMMY / MTY

Flight Track Log - Related Links

Times and Time Zones

All times are in EST time to prevent confusion due to time zone crossing. See the ASQ4403 flight status page for this flight to view local times or setup timezone preferences in your user account.

Time Position Orientation Groundspeed Altitude Reporting Facility
EST Latitude Longitude Course Direction KTS MPH feet Rate Location/Type
05:37PM 29.9639 -95.3433 190° South 138 159 800  Level Houston Center
05:38PM 29.9353 -95.3058 131° Southeast 201 231 2,300 1,560 Climbing Houston Center
05:39PM 29.8903 -95.2511 133° Southeast 262 302 3,900 1,380 Climbing Houston Center
05:39PM 29.8881 -95.2472 123° Southeast 222 255 4,000 480 Climbing Houston Center
05:40PM 29.6001 -95.4092 191° South  Level FlightAware Approximate
05:40PM 29.8358 -95.1853 134° Southeast 286 329 4,400  Level Houston Center
05:40PM 29.8322 -95.1808 133° Southeast 261 300 4,500 2,460 Climbing Houston Center
05:41PM 29.5045 -95.4291 190° South  Level FlightAware Approximate
05:41PM 29.7767 -95.1156 134° Southeast 292 336 7,000  Level Houston Center
05:41PM 29.7756 -95.1144 139° Southeast 284 327 7,000 2,100 Level Houston Center
05:42PM 29.4087 -95.4483 190° South  Level FlightAware Approximate
05:42PM 29.7008 -95.0886 163° South 282 325 9,200  Level Houston Center
05:42PM 29.7014 -95.0883 23° Northeast 280 322 9,200 1,140 Level Houston Center
05:43PM 29.6269 -95.1075 193° South 298 343 10,400 1,800 Climbing Houston Center
05:43PM 29.6083 -95.1158 201° Southwest 292 336 11,100 1,020 Climbing Houston Center
05:44PM 29.5444 -95.1547 208° Southwest 305 351 11,700 840 Climbing Houston Center
05:45PM 29.4367 -95.2158 206° Southwest 352 405 12,900 1,380 Climbing Houston Center
05:46PM 29.3483 -95.2661 206° Southwest 356 410 14,600 1,560 Climbing Houston Center
05:47PM 29.2706 -95.3300 216° Southwest 348 400 16,200 1,500 Climbing Houston Center
05:48PM 29.1967 -95.3986 219° Southwest 344 396 17,800 1,560 Climbing Houston Center
05:49PM 29.1214 -95.4683 219° Southwest 344 396 19,500 1,560 Climbing Houston Center
05:50PM 29.0453 -95.5367 218° Southwest 346 398 21,100 1,560 Climbing Houston Center
05:51PM 28.9542 -95.6222 219° Southwest 349 402 22,800 1,380 Climbing Houston Center
05:52PM 28.8753 -95.6942 219° Southwest 356 410 24,000 1,140 Climbing Houston Center
05:53PM 28.7961 -95.7667 219° Southwest 361 415 25,200 1,080 Climbing Houston Center
05:54PM 28.7144 -95.8411 219° Southwest 370 426 26,300 1,020 Climbing Houston Center
05:55PM 28.6322 -95.9158 219° Southwest 373 429 27,400 1,020 Climbing Houston Center
05:56PM 28.5392 -96.0008 219° Southwest 374 430 28,500 960 Climbing Houston Center
05:57PM 28.4569 -96.0758 219° Southwest 376 433 29,500 720 Climbing Houston Center
05:58PM 28.3742 -96.1494 218° Southwest 376 433 30,000 240 Climbing Houston Center
05:59PM 28.2881 -96.2294 219° Southwest 391 450 30,000  Level Houston Center
06:00PM 28.1983 -96.3106 219° Southwest 407 468 30,000  Level Houston Center
06:02PM 28.0894 -96.4086 218° Southwest 413 475 30,000  Level Houston Center
06:03PM 27.9972 -96.4908 218° Southwest 418 481 30,000  Level Houston Center
06:04PM 27.8961 -96.5808 218° Southwest 423 487 30,000  Level Houston Center
06:05PM 27.8031 -96.6647 219° Southwest 422 486 30,000  Level Houston Center
06:06PM 27.7072 -96.7497 218° Southwest 424 488 30,000  Level Houston Center
06:07PM 27.6133 -96.8342 219° Southwest 424 488 30,000  Level Houston Center
06:08PM 27.5106 -96.9250 218° Southwest 424 488 30,000  Level Houston Center
06:09PM 27.4167 -97.0078 218° Southwest 423 487 30,000  Level Houston Center
06:10PM 27.3225 -97.0914 218° Southwest 423 487 30,000  Level Houston Center
06:11PM 27.2292 -97.1739 218° Southwest 422 486 30,000  Level Houston Center
06:12PM 27.1356 -97.2564 218° Southwest 421 484 30,000  Level Houston Center
06:13PM 27.0411 -97.3386 218° Southwest 421 484 30,000  Level Houston Center
06:14PM 26.9394 -97.4283 218° Southwest 420 483 30,000  Level Houston Center
06:15PM 26.8503 -97.5058 218° Southwest 419 482 30,000  Level Houston Center
06:16PM 26.7511 -97.5919 218° Southwest 418 481 30,000  Level Houston Center
06:17PM 26.6589 -97.6711 218° Southwest 418 481 30,000  Level Houston Center
06:18PM 26.5600 -97.7581 218° Southwest 418 481 30,000  Level Houston Center
06:19PM 26.4683 -97.8378 218° Southwest 419 482 30,000  Level Houston Center
06:20PM 26.3692 -97.9236 218° Southwest 419 482 30,000  Level Houston Center
06:21PM 26.2733 -98.0067 218° Southwest 420 483 30,000  Level Houston Center
06:22PM 26.1772 -98.0900 218° Southwest 422 486 30,000  Level Houston Center
06:23PM 26.0911 -98.1636 218° Southwest 422 486 30,000  Level Houston Center
06:25PM 25.9965 -98.2409 261° West  Level FlightAware Approximate
06:32PM 25.9101 -99.0042 262° West  Level FlightAware Approximate
06:33PM 25.8965 -99.1130 262° West  Level FlightAware Approximate
06:34PM 25.8824 -99.2217 259° West  Level FlightAware Approximate
06:35PM 25.8629 -99.3294 259° West  Level FlightAware Approximate
06:36PM 25.8500 -99.4378 270° West  Level FlightAware Approximate
06:37PM 25.8398 -99.5462 256° West  Level FlightAware Approximate
06:38PM 25.8164 -99.6529 264° West  Level FlightAware Approximate
06:39PM 25.8065 -99.7621 264° West  Level FlightAware Approximate
06:40PM 25.8000 -99.8715 270° West  Level FlightAware Approximate
06:41PM 25.7833 -99.9765 270° West  Level FlightAware Approximate
06:42PM 25.7698 -100.0846 257° West  Level FlightAware Approximate
06:43PM 25.7667 -100.1000 North  Level FlightAware Approximate
06:44PM 25.7785 -100.1069 North  Level Estimated